createdAt,value
2022-09-28T00:01:21.443Z,84.40
2022-09-28T00:03:51.458Z,84.13
2022-09-28T00:06:21.952Z,84.98
2022-09-28T00:08:50.365Z,84.85
2022-09-28T00:11:20.953Z,84.87
2022-09-28T00:13:56.783Z,84.59
2022-09-28T00:16:28.858Z,84.77
2022-09-28T00:18:57.449Z,84.84
2022-09-28T00:21:30.543Z,84.99
2022-09-28T00:24:15.960Z,85.14
2022-09-28T00:26:54.000Z,84.85
2022-09-28T00:29:27.795Z,84.87
2022-09-28T00:32:02.696Z,84.92
2022-09-28T00:34:36.339Z,85.03
2022-09-28T00:37:06.021Z,84.57
2022-09-28T00:39:36.061Z,85.06
2022-09-28T00:42:11.141Z,85.37
2022-09-28T00:44:49.026Z,85.26
2022-09-28T00:47:42.774Z,85.70
2022-09-28T00:50:19.054Z,85.88
2022-09-28T00:52:47.420Z,85.69
2022-09-28T00:55:19.137Z,85.38
2022-09-28T00:57:52.260Z,85.48
2022-09-28T01:00:20.435Z,85.79
2022-09-28T01:02:49.331Z,85.81
2022-09-28T01:05:18.215Z,85.82
2022-09-28T01:07:46.794Z,85.98
2022-09-28T01:10:15.655Z,86.22
2022-09-28T01:12:43.935Z,86.85
2022-09-28T01:15:12.236Z,86.77
2022-09-28T01:18:13.503Z,86.77
2022-09-28T01:20:56.096Z,86.93
2022-09-28T01:23:42.931Z,86.98
2022-09-28T01:26:31.483Z,87.00
2022-09-28T01:29:05.843Z,87.43
2022-09-28T01:31:36.766Z,87.42
2022-09-28T01:34:14.105Z,87.26
2022-09-28T01:36:50.965Z,86.87
2022-09-28T01:39:33.185Z,86.43
2022-09-28T01:42:08.272Z,87.03
2022-09-28T01:44:40.184Z,87.01
2022-09-28T01:47:13.176Z,87.21
2022-09-28T01:49:49.233Z,87.01
2022-09-28T01:52:25.407Z,86.92
2022-09-28T01:55:21.420Z,87.15
2022-09-28T01:57:55.153Z,87.37
2022-09-28T02:00:24.580Z,87.30
2022-09-28T02:03:00.206Z,87.30
2022-09-28T02:05:37.887Z,87.19
2022-09-28T02:08:22.124Z,87.49
2022-09-28T02:11:02.684Z,87.77
2022-09-28T02:13:38.023Z,88.27
2022-09-28T02:16:21.398Z,88.27
2022-09-28T02:18:51.267Z,88.26
2022-09-28T02:21:24.679Z,88.44
2022-09-28T02:23:56.724Z,88.40
2022-09-28T02:26:31.557Z,88.63
2022-09-28T02:28:59.957Z,88.59
2022-09-28T02:31:28.611Z,88.71
2022-09-28T02:33:58.221Z,88.66
2022-09-28T02:36:27.856Z,88.52
2022-09-28T02:38:57.452Z,88.21
2022-09-28T02:41:58.301Z,87.95
2022-09-28T02:45:00.460Z,88.13
2022-09-28T02:47:51.846Z,88.20
2022-09-28T02:50:39.213Z,88.06
2022-09-28T02:53:35.651Z,87.90
2022-09-28T02:56:17.634Z,87.66
2022-09-28T02:59:05.278Z,87.72
2022-09-28T03:01:46.706Z,87.96
2022-09-28T03:04:42.669Z,87.99
2022-09-28T03:07:34.184Z,88.19
2022-09-28T03:10:28.221Z,88.08
2022-09-28T03:12:57.368Z,88.25
2022-09-28T03:15:27.396Z,88.09
2022-09-28T03:17:57.318Z,88.27
2022-09-28T03:20:29.977Z,88.21
2022-09-28T03:23:23.447Z,88.23
2022-09-28T03:25:46.619Z,89.19
2022-09-28T03:28:16.119Z,89.92
2022-09-28T03:30:44.402Z,90.06
2022-09-28T03:33:12.775Z,90.36
2022-09-28T03:35:40.980Z,90.04
2022-09-28T03:38:09.142Z,89.61
2022-09-28T03:40:39.089Z,89.18
2022-09-28T03:43:07.824Z,88.77
2022-09-28T03:45:36.250Z,88.95
2022-09-28T03:48:04.996Z,89.12
2022-09-28T03:50:35.211Z,89.33
2022-09-28T03:53:04.462Z,90.63
2022-09-28T03:55:32.788Z,91.02
2022-09-28T03:58:01.029Z,91.06
2022-09-28T04:00:30.753Z,91.16
2022-09-28T04:02:59.048Z,91.02
2022-09-28T04:05:27.444Z,91.35
2022-09-28T04:07:59.120Z,90.95
2022-09-28T04:10:27.751Z,90.16
2022-09-28T04:12:59.029Z,91.13
2022-09-28T04:15:28.055Z,90.87
2022-09-28T04:17:56.168Z,90.94
2022-09-28T04:20:46.412Z,90.82
2022-09-28T04:23:15.883Z,90.21
2022-09-28T04:25:48.021Z,90.12
2022-09-28T04:28:34.606Z,90.35
2022-09-28T04:31:02.920Z,90.44
2022-09-28T04:33:31.846Z,89.94
2022-09-28T04:36:00.815Z,89.26
2022-09-28T04:38:51.314Z,88.45
2022-09-28T04:41:18.156Z,89.07
2022-09-28T04:43:50.150Z,89.09
2022-09-28T04:46:19.127Z,88.81
2022-09-28T04:49:05.146Z,88.55
2022-09-28T04:51:44.768Z,88.79
2022-09-28T04:54:13.413Z,88.52
2022-09-28T04:56:42.492Z,88.51
2022-09-28T04:59:10.804Z,88.66
2022-09-28T05:01:43.199Z,88.64
2022-09-28T05:04:30.740Z,88.14
2022-09-28T05:07:17.439Z,88.20
2022-09-28T05:09:45.620Z,88.41
2022-09-28T05:12:13.842Z,88.70
2022-09-28T05:14:42.252Z,88.98
2022-09-28T05:17:12.859Z,88.38
2022-09-28T05:19:57.677Z,88.43
2022-09-28T05:22:25.992Z,88.44
2022-09-28T05:24:58.510Z,88.50
2022-09-28T05:27:26.876Z,89.07
2022-09-28T05:30:18.924Z,88.93
2022-09-28T05:33:05.875Z,88.96
2022-09-28T05:35:49.781Z,88.73
2022-09-28T05:38:20.917Z,88.21
2022-09-28T05:40:49.177Z,87.86
2022-09-28T05:43:17.708Z,88.09
2022-09-28T05:45:50.426Z,87.98
2022-09-28T05:48:23.504Z,88.48
2022-09-28T05:50:52.733Z,88.95
2022-09-28T05:53:21.641Z,89.14
2022-09-28T05:55:50.040Z,89.13
2022-09-28T05:58:18.325Z,88.55
2022-09-28T06:00:46.575Z,88.71
2022-09-28T06:03:15.491Z,88.57
2022-09-28T06:05:43.900Z,88.61
2022-09-28T06:08:12.424Z,88.10
2022-09-28T06:10:45.041Z,87.64
2022-09-28T06:13:13.438Z,86.95
2022-09-28T06:15:42.877Z,86.59
2022-09-28T06:18:17.392Z,86.46
2022-09-28T06:21:20.895Z,86.23
2022-09-28T06:23:49.581Z,85.90
2022-09-28T06:26:19.252Z,85.68
2022-09-28T06:28:47.689Z,85.63
2022-09-28T06:31:16.189Z,85.13
2022-09-28T06:33:50.760Z,85.18
2022-09-28T06:36:21.102Z,85.02
2022-09-28T06:38:50.877Z,84.79
2022-09-28T06:41:19.729Z,84.74
2022-09-28T06:43:48.507Z,84.37
2022-09-28T06:46:35.897Z,82.72
2022-09-28T06:49:27.195Z,82.38
2022-09-28T06:52:13.992Z,81.91
2022-09-28T06:55:05.198Z,80.33
2022-09-28T06:58:51.121Z,79.70
2022-09-28T07:01:20.107Z,79.90
2022-09-28T07:03:58.119Z,79.12
2022-09-28T07:06:48.448Z,78.53
2022-09-28T07:09:38.146Z,77.91
2022-09-28T07:12:13.391Z,78.38
2022-09-28T07:14:57.552Z,77.72
2022-09-28T07:17:28.387Z,77.49
2022-09-28T07:20:03.805Z,77.70
2022-09-28T07:22:43.111Z,77.94
2022-09-28T07:25:16.294Z,78.03
2022-09-28T07:28:05.153Z,78.22
2022-09-28T07:31:33.918Z,78.41
2022-09-28T07:34:19.031Z,78.75
2022-09-28T07:37:11.837Z,78.82
2022-09-28T07:39:59.025Z,78.88
2022-09-28T07:42:30.115Z,78.90
2022-09-28T07:44:59.088Z,79.20
2022-09-28T07:47:32.284Z,79.72
2022-09-28T07:50:18.286Z,79.41
2022-09-28T07:53:13.045Z,79.06
2022-09-28T07:56:04.024Z,79.29
2022-09-28T07:58:42.192Z,79.58
2022-09-28T08:01:40.020Z,78.80
2022-09-28T08:04:10.947Z,77.73
2022-09-28T08:06:41.165Z,76.86
2022-09-28T08:09:11.694Z,75.72
2022-09-28T08:12:29.530Z,75.43
2022-09-28T08:15:42.378Z,75.36
2022-09-28T08:18:19.744Z,75.77
2022-09-28T08:21:06.701Z,75.43
2022-09-28T08:23:35.071Z,75.49
2022-09-28T08:26:04.528Z,73.82
2022-09-28T08:28:36.007Z,72.92
2022-09-28T08:31:19.047Z,72.97
2022-09-28T08:34:41.718Z,73.21
2022-09-28T08:38:03.454Z,72.98
2022-09-28T08:41:45.783Z,73.64
2022-09-28T08:44:59.273Z,71.99
2022-09-28T08:48:22.726Z,71.23
2022-09-28T08:51:33.154Z,72.64
2022-09-28T08:54:28.460Z,70.68
2022-09-28T08:57:12.815Z,69.88
2022-09-28T08:59:49.732Z,69.43
2022-09-28T09:02:39.957Z,68.17
2022-09-28T09:05:20.717Z,66.42
2022-09-28T09:08:57.647Z,65.72
2022-09-28T09:12:05.007Z,66.23
2022-09-28T09:14:51.637Z,65.17
2022-09-28T09:17:31.626Z,62.37
2022-09-28T09:21:06.760Z,61.41
2022-09-28T09:23:57.560Z,61.15
2022-09-28T09:26:40.660Z,60.52
2022-09-28T09:29:25.780Z,59.73
2022-09-28T09:32:11.547Z,60.57
2022-09-28T09:35:22.742Z,61.45
2022-09-28T09:38:35.180Z,59.82
2022-09-28T09:42:50.053Z,58.49
2022-09-28T09:46:40.841Z,56.92
2022-09-28T09:49:30.800Z,56.79
2022-09-28T09:52:06.785Z,57.53
2022-09-28T09:55:30.303Z,57.96
2022-09-28T09:58:52.124Z,56.63
2022-09-28T10:01:40.301Z,56.12
2022-09-28T10:04:30.825Z,55.72
2022-09-28T10:07:09.380Z,55.18
2022-09-28T10:09:44.205Z,54.91
2022-09-28T10:12:31.478Z,55.18
2022-09-28T10:15:07.393Z,55.23
2022-09-28T10:17:43.304Z,55.49
2022-09-28T10:20:55.230Z,53.72
2022-09-28T10:23:42.501Z,55.53
2022-09-28T10:26:25.229Z,55.59
2022-09-28T10:29:01.339Z,55.21
2022-09-28T10:31:35.693Z,54.89
2022-09-28T10:34:10.675Z,54.23
2022-09-28T10:36:56.229Z,52.90
2022-09-28T10:39:46.185Z,52.85
2022-09-28T10:42:22.238Z,52.63
2022-09-28T10:45:19.807Z,52.38
2022-09-28T10:47:48.566Z,52.76
2022-09-28T10:50:25.473Z,52.73
2022-09-28T10:53:20.888Z,52.93
2022-09-28T10:56:20.234Z,52.94
2022-09-28T10:58:49.531Z,51.99
2022-09-28T11:01:31.518Z,52.33
2022-09-28T11:04:08.175Z,52.25
2022-09-28T11:06:40.459Z,51.30
2022-09-28T11:09:31.376Z,51.93
2022-09-28T11:12:07.397Z,52.16
2022-09-28T11:14:42.722Z,50.90
2022-09-28T11:17:36.453Z,50.24
2022-09-28T11:20:28.270Z,50.85
2022-09-28T11:23:18.813Z,50.83
2022-09-28T11:26:06.335Z,50.31
2022-09-28T11:28:39.565Z,51.37
2022-09-28T11:31:12.820Z,50.68
2022-09-28T11:34:31.021Z,51.30
2022-09-28T11:37:11.186Z,51.28
2022-09-28T11:40:10.131Z,51.13
2022-09-28T11:43:16.753Z,50.30
2022-09-28T11:46:01.483Z,51.33
2022-09-28T11:48:56.712Z,50.19
2022-09-28T11:51:31.772Z,49.96
2022-09-28T11:54:14.571Z,50.77
2022-09-28T11:56:48.886Z,50.28
2022-09-28T11:59:42.770Z,50.11
2022-09-28T12:02:24.133Z,50.30
2022-09-28T12:05:15.970Z,50.73
2022-09-28T12:07:59.445Z,50.89
2022-09-28T12:11:13.589Z,49.68
2022-09-28T12:14:41.469Z,49.68
2022-09-28T12:17:26.939Z,48.88
2022-09-28T12:20:40.283Z,49.41
2022-09-28T12:23:18.020Z,49.22
2022-09-28T12:25:53.789Z,49.03
2022-09-28T12:28:45.518Z,47.64
2022-09-28T12:31:25.670Z,47.88
2022-09-28T12:33:54.282Z,48.20
2022-09-28T12:37:19.407Z,48.38
2022-09-28T12:40:26.480Z,47.15
2022-09-28T12:43:48.355Z,47.25
2022-09-28T12:46:43.261Z,46.14
2022-09-28T12:52:37.316Z,46.38
2022-09-28T12:55:27.036Z,46.11
2022-09-28T12:58:29.287Z,45.96
2022-09-28T13:01:15.658Z,45.34
2022-09-28T13:04:13.264Z,46.07
2022-09-28T13:07:07.917Z,45.19
2022-09-28T13:09:51.151Z,45.95
2022-09-28T13:12:25.663Z,46.79
2022-09-28T13:15:25.000Z,46.57
2022-09-28T13:18:05.233Z,46.93
2022-09-28T13:20:54.586Z,47.56
2022-09-28T13:23:31.301Z,46.79
2022-09-28T13:26:17.474Z,47.76
2022-09-28T13:28:47.421Z,47.80
2022-09-28T13:31:22.986Z,48.29
2022-09-28T13:33:52.882Z,47.98
2022-09-28T13:36:30.799Z,48.02
2022-09-28T13:39:01.018Z,48.56
2022-09-28T13:41:40.647Z,48.01
2022-09-28T13:44:20.286Z,48.39
2022-09-28T13:47:20.740Z,48.36
2022-09-28T13:50:07.455Z,48.36
2022-09-28T13:53:27.184Z,48.70
2022-09-28T13:56:22.921Z,48.58
2022-09-28T13:58:58.012Z,49.21
2022-09-28T14:02:08.465Z,49.25
2022-09-28T14:04:57.862Z,50.00
2022-09-28T14:07:59.627Z,50.21
2022-09-28T14:10:53.889Z,51.03
2022-09-28T14:13:43.597Z,50.44
2022-09-28T14:16:17.999Z,50.77
2022-09-28T14:18:58.076Z,50.90
2022-09-28T14:22:14.916Z,51.19
2022-09-28T14:25:07.169Z,51.17
2022-09-28T14:28:07.309Z,50.70
2022-09-28T14:30:41.641Z,50.77
2022-09-28T14:33:38.981Z,50.85
2022-09-28T14:36:47.910Z,50.54
2022-09-28T14:39:44.924Z,50.23
2022-09-28T14:42:22.340Z,50.21
2022-09-28T14:45:06.207Z,49.81
2022-09-28T14:47:41.916Z,49.35
2022-09-28T14:50:29.889Z,49.69
2022-09-28T14:53:14.285Z,49.46
2022-09-28T14:55:59.905Z,49.58
2022-09-28T14:58:30.051Z,49.97
2022-09-28T15:01:16.136Z,49.47
2022-09-28T15:03:48.747Z,47.92
2022-09-28T15:06:19.350Z,47.93
2022-09-28T15:08:47.690Z,47.68
2022-09-28T15:11:21.670Z,48.26
2022-09-28T15:14:02.708Z,47.00
2022-09-28T15:16:31.493Z,45.65
2022-09-28T15:19:21.118Z,46.12
2022-09-28T15:21:51.400Z,45.58
2022-09-28T15:24:33.729Z,45.92
2022-09-28T15:27:19.181Z,44.81
2022-09-28T15:30:23.119Z,45.17
2022-09-28T15:32:55.169Z,44.36
2022-09-28T15:35:27.676Z,44.38
2022-09-28T15:37:56.094Z,44.27
2022-09-28T15:40:38.174Z,44.73
2022-09-28T15:43:27.175Z,44.30
2022-09-28T15:46:06.834Z,45.14
2022-09-28T15:49:00.094Z,46.14
2022-09-28T15:51:30.049Z,47.00
2022-09-28T15:54:09.612Z,47.87
2022-09-28T15:57:02.971Z,49.02
2022-09-28T15:59:41.428Z,50.23
2022-09-28T16:02:26.152Z,50.68
2022-09-28T16:04:59.193Z,51.14
2022-09-28T16:07:33.890Z,51.40
2022-09-28T16:10:14.198Z,51.67
2022-09-28T16:12:56.708Z,52.07
2022-09-28T16:15:26.289Z,52.23
2022-09-28T16:18:01.615Z,52.50
2022-09-28T16:20:36.623Z,52.75
2022-09-28T16:23:17.093Z,53.36
2022-09-28T16:26:27.063Z,53.83
2022-09-28T16:28:55.648Z,54.47
2022-09-28T16:31:30.226Z,54.56
2022-09-28T16:34:20.191Z,54.62
2022-09-28T16:36:49.858Z,54.80
2022-09-28T16:39:19.692Z,54.95
2022-09-28T16:41:54.055Z,55.41
2022-09-28T16:44:32.884Z,55.84
2022-09-28T16:47:01.428Z,55.78
2022-09-28T16:49:32.373Z,56.00
2022-09-28T16:52:02.619Z,56.19
2022-09-28T16:54:49.334Z,56.46
2022-09-28T16:57:17.784Z,56.68
2022-09-28T16:59:46.106Z,56.84
2022-09-28T17:05:13.177Z,57.04
2022-09-28T17:07:43.436Z,57.11
2022-09-28T17:10:49.792Z,57.32
2022-09-28T17:13:31.737Z,57.46
2022-09-28T17:16:04.480Z,57.84
2022-09-28T17:18:34.073Z,57.80
2022-09-28T17:21:05.108Z,58.02
2022-09-28T17:23:34.004Z,58.15
2022-09-28T17:26:03.065Z,58.48
2022-09-28T17:28:36.907Z,58.75
2022-09-28T17:31:10.227Z,59.02
2022-09-28T17:33:38.629Z,59.21
2022-09-28T17:36:09.962Z,59.32
2022-09-28T17:38:38.508Z,59.33
2022-09-28T17:41:06.947Z,59.46
2022-09-28T17:43:35.355Z,59.65
2022-09-28T17:46:05.899Z,59.87
2022-09-28T17:48:34.793Z,59.99
2022-09-28T17:51:04.070Z,60.20
2022-09-28T17:53:32.421Z,60.21
2022-09-28T17:56:01.431Z,60.57
2022-09-28T17:58:29.770Z,60.78
2022-09-28T18:00:58.229Z,60.85
2022-09-28T18:03:27.105Z,61.20
2022-09-28T18:06:07.532Z,61.08
2022-09-28T18:08:37.334Z,60.93
2022-09-28T18:11:06.483Z,61.07
2022-09-28T18:13:35.205Z,61.13
2022-09-28T18:16:05.254Z,61.17
2022-09-28T18:18:36.953Z,61.26
2022-09-28T18:21:09.312Z,61.10
2022-09-28T18:23:39.446Z,61.12
2022-09-28T18:26:13.504Z,61.20
2022-09-28T18:28:42.419Z,61.11
2022-09-28T18:31:14.558Z,61.17
2022-09-28T18:33:43.533Z,61.20
2022-09-28T18:36:12.170Z,61.35
2022-09-28T18:38:40.842Z,61.35
2022-09-28T18:41:13.669Z,61.63
2022-09-28T18:43:51.217Z,61.98
2022-09-28T18:46:19.844Z,61.77
2022-09-28T18:48:48.341Z,61.85
2022-09-28T18:51:16.961Z,61.78
2022-09-28T18:53:45.578Z,61.92
2022-09-28T18:56:21.301Z,62.21
2022-09-28T18:58:51.940Z,62.58
2022-09-28T19:01:30.832Z,62.80
2022-09-28T19:04:02.179Z,62.89
2022-09-28T19:06:32.637Z,63.21
2022-09-28T19:09:01.849Z,63.74
2022-09-28T19:11:30.423Z,63.97
2022-09-28T19:13:59.182Z,63.84
2022-09-28T19:16:31.282Z,64.01
2022-09-28T19:19:02.416Z,64.09
2022-09-28T19:21:31.461Z,64.23
2022-09-28T19:24:04.195Z,64.30
2022-09-28T19:26:34.037Z,64.23
2022-09-28T19:29:03.175Z,64.36
2022-09-28T19:31:32.703Z,64.56
2022-09-28T19:34:01.329Z,64.71
2022-09-28T19:36:31.106Z,64.71
2022-09-28T19:39:04.160Z,64.89
2022-09-28T19:41:44.816Z,65.04
2022-09-28T19:44:27.865Z,65.25
2022-09-28T19:47:04.329Z,65.41
2022-09-28T19:49:37.288Z,65.54
2022-09-28T19:52:16.068Z,65.61
2022-09-28T19:54:52.231Z,65.69
2022-09-28T19:57:20.598Z,66.04
2022-09-28T19:59:52.512Z,66.18
2022-09-28T20:02:21.900Z,66.63
2022-09-28T20:04:50.624Z,66.73
2022-09-28T20:07:19.106Z,66.68
2022-09-28T20:09:47.609Z,66.96
2022-09-28T20:12:16.074Z,66.86
2022-09-28T20:14:44.572Z,66.93
2022-09-28T20:17:13.259Z,66.99
2022-09-28T20:19:41.739Z,67.05
2022-09-28T20:22:10.159Z,67.01
2022-09-28T20:24:38.583Z,67.05
2022-09-28T20:27:07.079Z,67.06
2022-09-28T20:29:35.560Z,67.18
2022-09-28T20:32:04.261Z,67.58
2022-09-28T20:34:34.243Z,67.76
2022-09-28T20:37:02.744Z,67.92
2022-09-28T20:39:31.217Z,68.14
2022-09-28T20:41:59.500Z,68.15
2022-09-28T20:44:27.980Z,68.66
2022-09-28T20:46:56.903Z,69.11
2022-09-28T20:49:27.377Z,69.09
2022-09-28T20:51:55.898Z,69.36
2022-09-28T20:54:24.446Z,69.74
2022-09-28T20:56:53.020Z,69.84
2022-09-28T20:59:24.520Z,70.24
2022-09-28T21:01:53.012Z,70.54
2022-09-28T21:04:21.524Z,70.94
2022-09-28T21:06:49.919Z,70.83
2022-09-28T21:09:18.418Z,71.03
2022-09-28T21:11:48.332Z,71.63
2022-09-28T21:14:17.456Z,71.77
2022-09-28T21:16:46.011Z,71.87
2022-09-28T21:19:14.491Z,72.25
2022-09-28T21:21:42.972Z,72.46
2022-09-28T21:24:11.501Z,72.66
2022-09-28T21:26:39.912Z,72.65
2022-09-28T21:29:13.780Z,72.81
2022-09-28T21:31:48.159Z,72.80
2022-09-28T21:34:19.660Z,73.33
2022-09-28T21:36:51.513Z,73.72
2022-09-28T21:39:20.544Z,73.63
2022-09-28T21:41:50.176Z,73.69
2022-09-28T21:44:18.783Z,73.78
2022-09-28T21:46:47.507Z,73.78
2022-09-28T21:49:15.945Z,73.67
2022-09-28T21:51:47.227Z,73.80
2022-09-28T21:54:15.672Z,74.05
2022-09-28T21:56:44.190Z,73.99
2022-09-28T21:59:12.610Z,74.03
2022-09-28T22:01:42.894Z,73.80
2022-09-28T22:04:11.415Z,73.72
2022-09-28T22:06:40.084Z,73.73
2022-09-28T22:09:08.692Z,73.84
2022-09-28T22:11:37.147Z,73.88
2022-09-28T22:14:05.565Z,74.17
2022-09-28T22:16:33.921Z,74.29
2022-09-28T22:19:02.400Z,74.49
2022-09-28T22:21:33.517Z,74.85
2022-09-28T22:24:05.489Z,74.87
2022-09-28T22:26:36.840Z,74.97
2022-09-28T22:29:09.070Z,75.15
2022-09-28T22:31:41.806Z,75.01
2022-09-28T22:34:10.249Z,74.80
2022-09-28T22:36:38.766Z,74.51
2022-09-28T22:39:07.351Z,74.55
2022-09-28T22:41:35.760Z,74.26
2022-09-28T22:44:04.210Z,74.16
2022-09-28T22:46:33.589Z,74.08
2022-09-28T22:49:02.317Z,73.75
2022-09-28T22:51:31.555Z,73.86
2022-09-28T22:54:00.161Z,73.75
2022-09-28T22:56:29.869Z,73.77
2022-09-28T22:58:58.166Z,73.74
2022-09-28T23:01:30.027Z,73.41
2022-09-28T23:03:59.734Z,72.91
2022-09-28T23:06:30.957Z,72.76
2022-09-28T23:09:00.365Z,73.02
2022-09-28T23:11:29.578Z,73.24
2022-09-28T23:13:59.729Z,73.18
2022-09-28T23:16:28.336Z,73.03
2022-09-28T23:18:57.490Z,73.44
2022-09-28T23:21:28.020Z,73.91
2022-09-28T23:24:01.255Z,75.42
2022-09-28T23:26:33.029Z,76.82
2022-09-28T23:29:01.744Z,77.12
2022-09-28T23:31:32.470Z,76.99
2022-09-28T23:34:06.736Z,76.79
2022-09-28T23:36:35.464Z,76.56
2022-09-28T23:39:04.665Z,76.31
2022-09-28T23:41:33.040Z,76.26
2022-09-28T23:44:01.723Z,75.95
2022-09-28T23:46:30.274Z,75.40
2022-09-28T23:48:58.806Z,74.70
2022-09-28T23:51:27.269Z,74.02
2022-09-28T23:53:55.612Z,73.72
2022-09-28T23:56:24.044Z,73.49
2022-09-28T23:58:52.445Z,73.14
